createdAt,value
2022-11-27T00:01:36.481Z,3.80
2022-11-27T00:04:05.180Z,3.80
2022-11-27T00:06:33.302Z,3.80
2022-11-27T00:09:04.816Z,3.80
2022-11-27T00:11:32.972Z,3.80
2022-11-27T00:14:00.828Z,3.80
2022-11-27T00:16:28.834Z,3.80
2022-11-27T00:18:55.859Z,3.80
2022-11-27T00:21:35.339Z,3.70
2022-11-27T00:24:05.768Z,3.70
2022-11-27T00:26:37.748Z,3.70
2022-11-27T00:29:06.917Z,3.70
2022-11-27T00:31:38.114Z,3.70
2022-11-27T00:34:08.749Z,3.70
2022-11-27T00:36:36.685Z,3.70
2022-11-27T00:39:03.879Z,3.80
2022-11-27T00:41:31.434Z,3.70
2022-11-27T00:43:58.612Z,3.60
2022-11-27T00:46:33.066Z,3.60
2022-11-27T00:49:04.030Z,3.60
2022-11-27T00:51:31.008Z,3.60
2022-11-27T00:53:58.271Z,3.60
2022-11-27T00:56:32.185Z,3.60
2022-11-27T00:58:59.528Z,3.60
2022-11-27T01:01:30.239Z,3.60
2022-11-27T01:03:58.912Z,3.60
2022-11-27T01:06:27.039Z,3.70
2022-11-27T01:08:54.036Z,3.50
2022-11-27T01:11:28.607Z,3.50
2022-11-27T01:14:01.641Z,3.50
2022-11-27T01:16:32.937Z,3.50
2022-11-27T01:19:02.123Z,3.50
2022-11-27T01:21:33.026Z,3.50
2022-11-27T01:24:01.329Z,3.50
2022-11-27T01:26:28.275Z,3.50
2022-11-27T01:28:57.708Z,3.50
2022-11-27T01:31:33.628Z,3.50
2022-11-27T01:34:07.562Z,3.40
2022-11-27T01:36:35.642Z,3.50
2022-11-27T01:39:04.184Z,3.40
2022-11-27T01:41:39.796Z,3.50
2022-11-27T01:44:24.866Z,3.50
2022-11-27T01:47:00.354Z,3.40
2022-11-27T01:49:35.766Z,3.50
2022-11-27T01:52:11.821Z,3.40
2022-11-27T01:54:49.255Z,3.40
2022-11-27T01:57:24.112Z,3.40
2022-11-27T01:59:56.455Z,3.40
2022-11-27T02:02:23.589Z,3.40
2022-11-27T02:04:50.581Z,3.30
2022-11-27T02:07:17.467Z,3.30
2022-11-27T02:09:44.575Z,3.30
2022-11-27T02:12:45.233Z,3.30
2022-11-27T02:15:34.812Z,3.30
2022-11-27T02:18:25.150Z,3.30
2022-11-27T02:21:19.512Z,3.20
2022-11-27T02:24:41.455Z,3.20
2022-11-27T02:27:48.626Z,3.20
2022-11-27T02:30:16.058Z,3.20
2022-11-27T02:32:53.707Z,3.20
2022-11-27T02:35:33.976Z,3.10
2022-11-27T02:38:10.504Z,3.10
2022-11-27T02:41:20.036Z,3.10
2022-11-27T02:43:51.490Z,3.10
2022-11-27T02:46:21.226Z,3.00
2022-11-27T02:48:57.521Z,3.10
2022-11-27T02:51:35.371Z,3.00
2022-11-27T02:54:08.830Z,3.00
2022-11-27T02:56:37.309Z,3.00
2022-11-27T02:59:11.688Z,3.00
2022-11-27T03:01:49.735Z,3.00
2022-11-27T03:04:26.953Z,2.90
2022-11-27T03:06:59.576Z,2.90
2022-11-27T03:09:46.448Z,2.90
2022-11-27T03:12:16.223Z,2.90
2022-11-27T03:14:45.594Z,2.90
2022-11-27T03:17:18.659Z,2.90
2022-11-27T03:19:54.909Z,2.90
2022-11-27T03:22:22.161Z,2.80
2022-11-27T03:24:49.972Z,2.80
2022-11-27T03:27:25.337Z,2.80
2022-11-27T03:30:00.443Z,2.80
2022-11-27T03:32:29.085Z,2.80
2022-11-27T03:34:57.284Z,2.80
2022-11-27T03:37:25.271Z,2.80
2022-11-27T03:39:53.649Z,2.80
2022-11-27T03:43:02.569Z,2.80
2022-11-27T03:46:03.870Z,2.80
2022-11-27T03:48:53.690Z,2.80
2022-11-27T03:51:41.223Z,2.80
2022-11-27T03:54:23.761Z,2.70
2022-11-27T03:57:07.784Z,2.70
2022-11-27T03:59:40.758Z,2.70
2022-11-27T04:02:14.081Z,2.70
2022-11-27T04:04:41.105Z,2.60
2022-11-27T04:07:15.977Z,2.60
2022-11-27T04:09:42.858Z,2.60
2022-11-27T04:12:09.618Z,2.60
2022-11-27T04:14:36.415Z,2.60
2022-11-27T04:17:03.179Z,2.60
2022-11-27T04:19:30.008Z,2.60
2022-11-27T04:21:56.857Z,2.50
2022-11-27T04:24:23.932Z,2.60
2022-11-27T04:26:50.785Z,2.50
2022-11-27T04:29:17.912Z,2.50
2022-11-27T04:31:44.833Z,2.60
2022-11-27T04:34:11.734Z,2.70
2022-11-27T04:36:39.646Z,2.50
2022-11-27T04:39:06.626Z,2.50
2022-11-27T04:41:33.457Z,2.50
2022-11-27T04:44:00.222Z,2.50
2022-11-27T04:46:27.081Z,2.50
2022-11-27T04:48:53.889Z,2.50
2022-11-27T04:51:20.731Z,2.50
2022-11-27T04:53:47.500Z,2.50
2022-11-27T04:56:14.473Z,2.50
2022-11-27T04:58:41.286Z,2.50
2022-11-27T05:01:09.656Z,2.50
2022-11-27T05:03:36.613Z,2.50
2022-11-27T05:06:03.733Z,2.50
2022-11-27T05:08:33.118Z,2.50
2022-11-27T05:11:08.437Z,2.50
2022-11-27T05:13:35.479Z,2.40
2022-11-27T05:16:02.469Z,2.40
2022-11-27T05:18:29.799Z,2.40
2022-11-27T05:21:06.096Z,2.50
2022-11-27T05:23:34.654Z,2.40
2022-11-27T05:26:01.593Z,2.40
2022-11-27T05:28:28.409Z,2.40
2022-11-27T05:30:55.302Z,2.40
2022-11-27T05:33:22.100Z,2.40
2022-11-27T05:35:48.947Z,2.40
2022-11-27T05:38:15.765Z,2.40
2022-11-27T05:40:42.525Z,2.40
2022-11-27T05:43:09.367Z,2.40
2022-11-27T05:45:38.120Z,2.40
2022-11-27T05:48:05.154Z,2.40
2022-11-27T05:50:32.171Z,2.40
2022-11-27T05:52:59.097Z,2.40
2022-11-27T05:55:25.957Z,2.40
2022-11-27T05:57:52.865Z,2.40
2022-11-27T06:00:20.124Z,2.40
2022-11-27T06:02:47.023Z,2.30
2022-11-27T06:05:13.980Z,2.40
2022-11-27T06:07:40.849Z,2.30
2022-11-27T06:10:08.360Z,2.30
2022-11-27T06:12:35.183Z,2.30
2022-11-27T06:15:01.986Z,2.30
2022-11-27T06:17:28.832Z,2.30
2022-11-27T06:19:55.690Z,2.30
2022-11-27T06:22:22.510Z,2.30
2022-11-27T06:24:49.351Z,2.30
2022-11-27T06:27:16.329Z,2.30
2022-11-27T06:29:43.456Z,2.30
2022-11-27T06:32:10.272Z,2.30
2022-11-27T06:34:37.135Z,2.30
2022-11-27T06:37:04.774Z,2.30
2022-11-27T06:39:33.029Z,2.30
2022-11-27T06:41:59.847Z,2.40
2022-11-27T06:44:26.797Z,2.40
2022-11-27T06:46:53.867Z,2.30
2022-11-27T06:49:21.114Z,2.30
2022-11-27T06:51:49.933Z,2.30
2022-11-27T06:54:17.008Z,2.40
2022-11-27T06:56:43.846Z,2.40
2022-11-27T06:59:16.323Z,2.40
2022-11-27T07:01:43.773Z,2.40
2022-11-27T07:04:12.908Z,2.40
2022-11-27T07:06:41.083Z,2.40
2022-11-27T07:09:08.680Z,2.40
2022-11-27T07:11:36.350Z,2.50
2022-11-27T07:14:05.629Z,2.60
2022-11-27T07:16:36.291Z,2.60
2022-11-27T07:19:07.742Z,2.70
2022-11-27T07:21:38.115Z,2.70
2022-11-27T07:24:05.301Z,2.70
2022-11-27T07:26:32.489Z,2.80
2022-11-27T07:28:59.682Z,2.80
2022-11-27T07:31:30.350Z,2.90
2022-11-27T07:33:58.022Z,2.90
2022-11-27T07:36:29.719Z,2.90
2022-11-27T07:38:57.902Z,3.00
2022-11-27T07:41:28.059Z,3.00
2022-11-27T07:43:59.237Z,3.10
2022-11-27T07:46:26.016Z,3.10
2022-11-27T07:48:53.094Z,3.20
2022-11-27T07:51:21.623Z,3.30
2022-11-27T07:53:51.722Z,3.20
2022-11-27T07:56:20.093Z,3.30
2022-11-27T07:58:47.423Z,3.30
2022-11-27T08:01:18.169Z,3.30
2022-11-27T08:03:45.772Z,3.40
2022-11-27T08:06:20.623Z,3.40
2022-11-27T08:08:48.176Z,3.40
2022-11-27T08:11:24.254Z,3.50
2022-11-27T08:13:56.509Z,3.50
2022-11-27T08:16:23.647Z,3.60
2022-11-27T08:18:50.479Z,3.70
2022-11-27T08:21:17.255Z,3.80
2022-11-27T08:23:44.185Z,4.00
2022-11-27T08:26:12.834Z,4.30
2022-11-27T08:28:40.732Z,4.80
2022-11-27T08:31:11.844Z,5.40
2022-11-27T08:33:38.917Z,5.90
2022-11-27T08:36:09.028Z,6.60
2022-11-27T08:38:37.522Z,7.20
2022-11-27T08:41:07.989Z,7.90
2022-11-27T08:43:35.403Z,8.50
2022-11-27T08:46:07.549Z,9.20
2022-11-27T08:48:35.161Z,9.90
2022-11-27T08:51:13.951Z,10.50
2022-11-27T08:53:41.587Z,11.10
2022-11-27T08:56:17.599Z,11.70
2022-11-27T08:58:45.552Z,12.30
2022-11-27T09:01:17.820Z,12.80
2022-11-27T09:03:45.347Z,13.20
2022-11-27T09:06:18.521Z,13.60
2022-11-27T09:08:46.022Z,14.00
2022-11-27T09:11:15.176Z,14.40
2022-11-27T09:13:44.349Z,14.60
2022-11-27T09:16:15.872Z,14.90
2022-11-27T09:18:47.659Z,15.10
2022-11-27T09:21:17.517Z,15.10
2022-11-27T09:23:45.274Z,15.20
2022-11-27T09:26:16.343Z,15.20
2022-11-27T09:28:45.091Z,15.10
2022-11-27T09:31:15.342Z,15.10
2022-11-27T09:33:43.110Z,15.20
2022-11-27T09:36:25.443Z,15.30
2022-11-27T09:38:53.651Z,15.40
2022-11-27T09:41:29.241Z,15.40
2022-11-27T09:44:06.532Z,15.40
2022-11-27T09:46:39.808Z,15.30
2022-11-27T09:49:18.512Z,15.20
2022-11-27T09:52:23.756Z,15.20
2022-11-27T09:55:20.393Z,15.00
2022-11-27T09:58:02.677Z,14.70
2022-11-27T10:00:29.625Z,14.50
2022-11-27T10:02:56.662Z,14.10
2022-11-27T10:05:43.293Z,13.60
2022-11-27T10:08:49.214Z,13.20
2022-11-27T10:11:46.524Z,12.80
2022-11-27T10:14:56.135Z,12.40
2022-11-27T10:17:33.140Z,12.30
2022-11-27T10:20:18.242Z,12.20
2022-11-27T10:23:37.901Z,12.30
2022-11-27T10:26:17.297Z,12.30
2022-11-27T10:29:00.331Z,12.30
2022-11-27T10:31:45.510Z,12.20
2022-11-27T10:34:47.092Z,12.10
2022-11-27T10:37:27.642Z,11.90
2022-11-27T10:40:05.215Z,11.60
2022-11-27T10:42:40.576Z,11.40
2022-11-27T10:45:39.783Z,11.10
2022-11-27T10:48:07.041Z,11.00
2022-11-27T10:50:34.304Z,10.90
2022-11-27T10:53:11.097Z,11.00
2022-11-27T10:56:06.600Z,11.20
2022-11-27T10:58:54.933Z,11.50
2022-11-27T11:01:24.106Z,11.90
2022-11-27T11:03:51.567Z,12.40
2022-11-27T11:06:26.931Z,12.80
2022-11-27T11:09:18.873Z,13.10
2022-11-27T11:11:45.953Z,13.20
2022-11-27T11:14:23.315Z,13.20
2022-11-27T11:16:52.761Z,13.00
2022-11-27T11:19:33.956Z,12.90
2022-11-27T11:22:14.522Z,12.90
2022-11-27T11:24:52.091Z,13.10
2022-11-27T11:27:27.896Z,13.20
2022-11-27T11:30:06.075Z,13.30
2022-11-27T11:32:39.929Z,13.50
2022-11-27T11:35:29.246Z,13.60
2022-11-27T11:37:57.854Z,13.80
2022-11-27T11:40:35.800Z,13.90
2022-11-27T11:43:09.970Z,13.90
2022-11-27T11:45:46.896Z,13.70
2022-11-27T11:48:25.194Z,13.50
2022-11-27T11:51:01.429Z,13.20
2022-11-27T11:53:41.386Z,12.80
2022-11-27T11:56:37.203Z,12.50
2022-11-27T11:59:55.962Z,12.20
2022-11-27T12:02:41.145Z,11.90
2022-11-27T12:05:39.744Z,11.80
2022-11-27T12:09:02.164Z,11.40
2022-11-27T12:11:40.479Z,11.20
2022-11-27T12:14:25.824Z,11.00
2022-11-27T12:17:11.005Z,10.80
2022-11-27T12:20:21.899Z,10.50
2022-11-27T12:23:09.240Z,10.30
2022-11-27T12:26:04.912Z,10.10
2022-11-27T12:28:43.730Z,9.90
2022-11-27T12:31:43.901Z,9.80
2022-11-27T12:34:41.838Z,9.70
2022-11-27T12:37:14.654Z,9.60
2022-11-27T12:40:33.370Z,9.50
2022-11-27T12:43:32.142Z,9.50
2022-11-27T12:46:15.003Z,9.50
2022-11-27T12:49:22.938Z,9.50
2022-11-27T12:52:02.822Z,9.60
2022-11-27T12:54:57.277Z,9.60
2022-11-27T12:57:41.942Z,9.60
2022-11-27T13:00:19.714Z,9.60
2022-11-27T13:03:13.914Z,9.60
2022-11-27T13:05:53.693Z,9.60
2022-11-27T13:08:52.680Z,9.60
2022-11-27T13:11:43.287Z,9.60
2022-11-27T13:14:22.062Z,9.70
2022-11-27T13:17:02.913Z,9.60
2022-11-27T13:19:45.121Z,9.50
2022-11-27T13:22:27.403Z,9.60
2022-11-27T13:24:56.409Z,9.50
2022-11-27T13:27:28.414Z,9.40
2022-11-27T13:30:09.510Z,9.40
2022-11-27T13:32:43.699Z,9.30
2022-11-27T13:35:43.285Z,9.30
2022-11-27T13:38:26.188Z,9.20
2022-11-27T13:40:56.171Z,9.10
2022-11-27T13:43:39.952Z,9.10
2022-11-27T13:46:46.547Z,9.10
2022-11-27T13:49:30.859Z,9.20
2022-11-27T13:52:19.295Z,9.20
2022-11-27T13:54:59.372Z,9.30
2022-11-27T13:57:29.903Z,9.40
2022-11-27T14:00:01.481Z,9.50
2022-11-27T14:02:51.764Z,9.50
2022-11-27T14:05:33.666Z,9.60
2022-11-27T14:08:00.779Z,9.60
2022-11-27T14:10:32.351Z,9.70
2022-11-27T14:13:03.499Z,9.70
2022-11-27T14:15:37.173Z,9.70
2022-11-27T14:18:19.379Z,9.70
2022-11-27T14:21:06.443Z,9.70
2022-11-27T14:23:36.251Z,9.70
2022-11-27T14:26:15.330Z,9.60
2022-11-27T14:28:51.483Z,9.50
2022-11-27T14:31:31.539Z,9.40
2022-11-27T14:34:16.335Z,9.30
2022-11-27T14:36:44.623Z,9.20
2022-11-27T14:39:28.080Z,9.10
2022-11-27T14:42:05.929Z,9.10
2022-11-27T14:44:33.096Z,8.90
2022-11-27T14:47:05.546Z,8.80
2022-11-27T14:49:34.089Z,8.70
2022-11-27T14:52:14.825Z,8.70
2022-11-27T14:54:42.434Z,8.50
2022-11-27T14:57:22.242Z,8.40
2022-11-27T14:59:49.271Z,8.30
2022-11-27T15:02:22.236Z,8.20
2022-11-27T15:05:04.827Z,8.10
2022-11-27T15:07:41.954Z,8.00
2022-11-27T15:10:35.901Z,7.90
2022-11-27T15:13:06.079Z,7.70
2022-11-27T15:15:52.217Z,7.50
2022-11-27T15:18:23.314Z,7.50
2022-11-27T15:20:51.644Z,7.20
2022-11-27T15:23:27.871Z,7.00
2022-11-27T15:26:07.289Z,6.80
2022-11-27T15:28:57.164Z,6.60
2022-11-27T15:31:37.283Z,6.50
2022-11-27T15:34:23.319Z,6.40
2022-11-27T15:37:06.293Z,6.30
2022-11-27T15:39:49.456Z,6.20
2022-11-27T15:42:17.621Z,6.20
2022-11-27T15:44:46.210Z,6.20
2022-11-27T15:47:35.279Z,6.10
2022-11-27T15:50:03.211Z,6.00
2022-11-27T15:52:30.255Z,6.10
2022-11-27T15:54:57.282Z,6.00
2022-11-27T15:57:26.207Z,6.00
2022-11-27T15:59:53.014Z,5.80
2022-11-27T16:02:19.869Z,5.80
2022-11-27T16:04:46.688Z,5.70
2022-11-27T16:07:13.652Z,5.60
2022-11-27T16:09:40.575Z,5.60
2022-11-27T16:12:07.629Z,5.50
2022-11-27T16:14:34.587Z,5.50
2022-11-27T16:17:01.763Z,5.50
2022-11-27T16:19:29.077Z,5.50
2022-11-27T16:21:56.843Z,5.40
2022-11-27T16:24:23.816Z,5.40
2022-11-27T16:26:50.692Z,5.40
2022-11-27T16:29:17.654Z,5.40
2022-11-27T16:31:44.546Z,5.40
2022-11-27T16:34:11.428Z,5.40
2022-11-27T16:36:43.761Z,5.30
2022-11-27T16:39:13.432Z,5.40
2022-11-27T16:41:40.417Z,5.30
2022-11-27T16:44:14.160Z,5.30
2022-11-27T16:46:41.700Z,5.30
2022-11-27T16:49:09.035Z,5.20
2022-11-27T16:51:39.259Z,5.20
2022-11-27T16:54:10.262Z,5.10
2022-11-27T16:56:38.439Z,5.00
2022-11-27T16:59:11.052Z,5.00
2022-11-27T17:01:38.606Z,4.90
2022-11-27T17:04:08.980Z,4.90
2022-11-27T17:06:38.408Z,4.90
2022-11-27T17:09:08.202Z,4.90
2022-11-27T17:11:37.740Z,4.80
2022-11-27T17:14:08.211Z,4.80
2022-11-27T17:16:38.725Z,4.80
2022-11-27T17:19:05.732Z,4.80
2022-11-27T17:21:35.190Z,4.80
2022-11-27T17:24:14.747Z,4.70
2022-11-27T17:26:43.398Z,4.70
2022-11-27T17:29:17.322Z,4.80
2022-11-27T17:31:44.394Z,4.70
2022-11-27T17:34:14.641Z,4.70
2022-11-27T17:36:43.020Z,4.70
2022-11-27T17:39:13.065Z,4.70
2022-11-27T17:41:41.509Z,4.70
2022-11-27T17:44:08.611Z,4.70
2022-11-27T17:46:37.167Z,4.70
2022-11-27T17:49:07.093Z,4.70
2022-11-27T17:51:36.088Z,4.80
2022-11-27T17:54:03.849Z,4.80
2022-11-27T17:56:31.128Z,4.80
2022-11-27T17:58:59.764Z,4.90
2022-11-27T18:01:29.192Z,4.80
2022-11-27T18:04:00.451Z,4.80
2022-11-27T18:06:27.783Z,4.80
2022-11-27T18:08:56.523Z,4.80
2022-11-27T18:11:29.283Z,4.80
2022-11-27T18:13:56.330Z,4.80
2022-11-27T18:16:30.204Z,4.90
2022-11-27T18:18:59.081Z,4.90
2022-11-27T18:21:28.512Z,4.90
2022-11-27T18:27:07.347Z,5.00
2022-11-27T18:29:29.848Z,5.00
2022-11-27T18:31:56.684Z,5.00
2022-11-27T18:34:23.616Z,5.10
2022-11-27T18:36:50.526Z,5.10
2022-11-27T18:39:17.483Z,5.10
2022-11-27T18:41:44.342Z,5.10
2022-11-27T18:44:11.285Z,5.00
2022-11-27T18:46:38.304Z,5.10
2022-11-27T18:49:05.835Z,5.00
2022-11-27T18:51:32.950Z,5.00
2022-11-27T18:53:59.804Z,5.00
2022-11-27T18:56:31.214Z,5.00
2022-11-27T18:59:04.319Z,5.00
2022-11-27T19:01:39.556Z,5.10
2022-11-27T19:04:09.065Z,5.00
2022-11-27T19:06:38.204Z,5.10
2022-11-27T19:09:06.476Z,5.10
2022-11-27T19:11:34.878Z,5.10
2022-11-27T19:14:01.909Z,5.10
2022-11-27T19:16:36.914Z,5.10
2022-11-27T19:19:06.010Z,5.00
2022-11-27T19:21:34.468Z,5.00
2022-11-27T19:24:03.582Z,5.00
2022-11-27T19:26:35.184Z,5.00
2022-11-27T19:29:08.226Z,5.00
2022-11-27T19:31:38.690Z,5.00
2022-11-27T19:34:07.422Z,5.00
2022-11-27T19:36:35.928Z,5.00
2022-11-27T19:39:14.076Z,5.00
2022-11-27T19:41:43.333Z,5.00
2022-11-27T19:44:13.008Z,5.00
2022-11-27T19:46:40.203Z,5.00
2022-11-27T19:49:13.486Z,5.10
2022-11-27T19:51:40.998Z,5.10
2022-11-27T19:54:10.608Z,5.10
2022-11-27T19:56:40.057Z,5.30
2022-11-27T19:59:08.147Z,5.30
2022-11-27T20:01:37.479Z,5.20
2022-11-27T20:04:05.208Z,5.20
2022-11-27T20:06:32.497Z,5.20
2022-11-27T20:09:02.705Z,5.20
2022-11-27T20:11:34.943Z,5.20
2022-11-27T20:14:04.262Z,5.20
2022-11-27T20:16:32.683Z,5.20
2022-11-27T20:19:01.132Z,5.20
2022-11-27T20:21:28.109Z,5.20
2022-11-27T20:23:56.857Z,5.20
2022-11-27T20:26:26.990Z,5.20
2022-11-27T20:28:54.475Z,5.20
2022-11-27T20:31:33.968Z,5.20
2022-11-27T20:34:04.790Z,5.30
2022-11-27T20:36:33.800Z,5.10
2022-11-27T20:39:01.741Z,5.20
2022-11-27T20:41:29.860Z,5.20
2022-11-27T20:44:00.272Z,5.20
2022-11-27T20:46:27.870Z,5.20
2022-11-27T20:48:55.909Z,5.10
2022-11-27T20:51:30.731Z,5.20
2022-11-27T20:54:00.166Z,5.20
2022-11-27T20:56:28.157Z,5.20
2022-11-27T20:58:55.171Z,5.20
2022-11-27T21:01:30.953Z,5.10
2022-11-27T21:04:00.735Z,5.10
2022-11-27T21:06:31.045Z,5.10
2022-11-27T21:09:03.450Z,5.10
2022-11-27T21:11:32.771Z,5.10
2022-11-27T21:14:05.456Z,5.10
2022-11-27T21:16:37.924Z,5.10
2022-11-27T21:19:29.116Z,5.10
2022-11-27T21:21:56.611Z,5.10
2022-11-27T21:24:27.370Z,5.00
2022-11-27T21:26:54.251Z,5.00
2022-11-27T21:29:25.330Z,5.10
2022-11-27T21:31:53.247Z,5.00
2022-11-27T21:34:20.107Z,5.00
2022-11-27T21:36:46.931Z,5.00
2022-11-27T21:39:20.261Z,5.00
2022-11-27T21:41:54.019Z,5.00
2022-11-27T21:44:22.945Z,5.00
2022-11-27T21:46:50.871Z,5.00
2022-11-27T21:49:20.524Z,5.00
2022-11-27T21:51:52.262Z,5.00
2022-11-27T21:54:20.089Z,5.00
2022-11-27T21:56:50.661Z,5.00
2022-11-27T21:59:17.581Z,5.00
2022-11-27T22:01:45.424Z,5.00
2022-11-27T22:04:12.675Z,5.00
2022-11-27T22:06:41.861Z,5.10
2022-11-27T22:09:15.054Z,5.00
2022-11-27T22:11:42.684Z,5.10
2022-11-27T22:14:09.671Z,5.00
2022-11-27T22:16:44.700Z,5.10
2022-11-27T22:19:14.350Z,5.10
2022-11-27T22:21:41.437Z,5.10
2022-11-27T22:24:15.127Z,5.10
2022-11-27T22:26:45.549Z,5.10
2022-11-27T22:29:12.400Z,5.10
2022-11-27T22:31:39.345Z,5.10
2022-11-27T22:34:06.307Z,5.10
2022-11-27T22:36:34.891Z,5.20
2022-11-27T22:39:06.113Z,5.20
2022-11-27T22:41:36.715Z,5.10
2022-11-27T22:44:13.013Z,5.10
2022-11-27T22:46:42.405Z,5.20
2022-11-27T22:49:13.023Z,5.20
2022-11-27T22:51:40.995Z,5.20
2022-11-27T22:54:11.015Z,5.20
2022-11-27T22:56:37.954Z,5.20
2022-11-27T22:59:31.188Z,5.20
2022-11-27T23:01:53.971Z,5.20
2022-11-27T23:04:20.763Z,5.20
2022-11-27T23:06:48.545Z,5.20
2022-11-27T23:09:18.067Z,5.20
2022-11-27T23:11:45.360Z,5.20
2022-11-27T23:14:12.310Z,5.20
2022-11-27T23:16:39.204Z,5.20
2022-11-27T23:19:06.216Z,5.20
2022-11-27T23:21:37.276Z,5.30
2022-11-27T23:24:06.605Z,5.30
2022-11-27T23:26:34.064Z,5.30
2022-11-27T23:29:00.946Z,5.20
2022-11-27T23:31:32.576Z,5.30
2022-11-27T23:34:04.299Z,5.30
2022-11-27T23:36:32.274Z,5.30
2022-11-27T23:39:06.420Z,5.30
2022-11-27T23:41:33.439Z,5.30
2022-11-27T23:44:01.442Z,5.30
2022-11-27T23:46:30.722Z,5.30
2022-11-27T23:49:00.241Z,5.30
2022-11-27T23:51:30.829Z,5.30
2022-11-27T23:53:58.640Z,5.30
2022-11-27T23:56:30.163Z,5.30
2022-11-27T23:58:59.016Z,5.20
